Time;durP1;ratioP1;P1;durP2;ratioP2;P2;SDS_P1;SDS_P2;PMS_P1;PMS_P2;Temp;Humidity;BMP_temperature;BMP_pressure;BME280_temperature;BME280_humidity;BME280_pressure;Samples;Min_cycle;Max_cycle;Signal;HPM_P1;HPM_P2
2021/10/11 00:00:26;;;;;;;;;;;11.30;99.90;;;;;;5063417;28;19959;-82
2021/10/11 00:02:52;;;;;;;;;;;11.30;99.90;;;;;;5073579;28;19917;-82
2021/10/11 00:05:18;;;;;;;;;;;11.30;99.90;;;;;;5063331;28;19928;-81
2021/10/11 00:07:43;;;;;;;;;;;11.30;99.90;;;;;;5072985;28;19919;-82
2021/10/11 00:10:15;;;;;;;;;;;11.30;99.90;;;;;;5059912;28;19952;-82
2021/10/11 00:12:40;;;;;;;;;;;11.30;99.90;;;;;;5070008;28;19947;-82
2021/10/11 00:15:06;;;;;;;;;;;11.30;99.90;;;;;;5059895;28;20266;-82
2021/10/11 00:17:32;;;;;;;;;;;11.30;99.90;;;;;;5057429;28;19916;-82
2021/10/11 00:19:57;;;;;;;;;;;11.30;99.90;;;;;;5062164;28;19959;-80
2021/10/11 00:22:23;;;;;;;;;;;11.40;99.90;;;;;;5074996;28;19913;-82
2021/10/11 00:24:49;;;;;;;;;;;11.40;99.90;;;;;;5073272;28;19919;-81
2021/10/11 00:27:14;;;;;;;;;;;11.50;99.90;;;;;;5070770;28;19968;-82
2021/10/11 00:29:40;;;;;;;;;;;11.50;99.90;;;;;;5058410;28;20231;-82
2021/10/11 00:32:07;;;;;;;;;;;11.60;99.90;;;;;;5073093;28;19913;-82
2021/10/11 00:34:34;;;;;;;;;;;11.60;99.90;;;;;;5073096;28;20008;-82
2021/10/11 00:36:59;;;;;;;;;;;11.60;99.90;;;;;;5062435;28;20651;-82
2021/10/11 00:39:25;;;;;;;;;;;11.60;99.90;;;;;;5064131;28;19917;-82
2021/10/11 00:41:51;;;;;;;;;;;11.60;99.90;;;;;;5069376;28;20325;-82
2021/10/11 00:44:16;;;;;;;;;;;11.50;99.90;;;;;;5063348;28;19965;-80
2021/10/11 00:46:42;;;;;;;;;;;11.50;99.90;;;;;;5073278;28;19958;-82
2021/10/11 00:49:07;;;;;;;;;;;11.40;99.90;;;;;;5074220;28;20038;-82
2021/10/11 00:51:33;;;;;;;;;;;11.30;99.90;;;;;;5057998;28;19913;-83
2021/10/11 00:53:59;;;;;;;;;;;11.20;99.90;;;;;;5063747;28;19920;-81
2021/10/11 00:56:24;;;;;;;;;;;11.20;99.90;;;;;;5065464;28;19931;-81
2021/10/11 00:58:52;;;;;;;;;;;11.10;99.90;;;;;;5060932;28;19917;-83
2021/10/11 01:01:17;;;;;;;;;;;11.10;99.90;;;;;;5068852;28;19920;-82
2021/10/11 01:03:43;;;;;;;;;;;11.10;99.90;;;;;;5062669;28;20720;-82
2021/10/11 01:06:09;;;;;;;;;;;11.10;99.90;;;;;;5064886;28;19919;-79
2021/10/11 01:08:35;;;;;;;;;;;11.10;99.90;;;;;;5061351;28;19947;-81
2021/10/11 01:11:00;;;;;;;;;;;11.00;99.90;;;;;;5062619;28;19944;-82
2021/10/11 01:13:26;;;;;;;;;;;10.90;99.90;;;;;;5059794;28;19923;-82
2021/10/11 01:15:51;;;;;;;;;;;10.90;99.90;;;;;;5058453;28;19960;-82
2021/10/11 01:18:17;;;;;;;;;;;10.80;99.90;;;;;;5054969;28;19924;-82
2021/10/11 01:20:43;;;;;;;;;;;10.80;99.90;;;;;;5061335;28;19921;-82
2021/10/11 01:23:08;;;;;;;;;;;10.70;99.90;;;;;;5060972;28;19955;-81
2021/10/11 01:25:34;;;;;;;;;;;10.70;99.90;;;;;;5055057;28;20022;-82
2021/10/11 01:28:00;;;;;;;;;;;10.60;99.90;;;;;;5057617;28;19948;-81
2021/10/11 01:30:25;;;;;;;;;;;10.60;99.90;;;;;;5064081;28;19916;-82
2021/10/11 01:32:51;;;;;;;;;;;10.50;99.90;;;;;;5055604;28;19921;-82
2021/10/11 01:35:17;;;;;;;;;;;10.40;99.90;;;;;;5072139;28;19916;-82
2021/10/11 01:37:43;;;;;;;;;;;10.40;99.90;;;;;;5064514;28;19974;-81
2021/10/11 01:40:09;;;;;;;;;;;10.30;99.90;;;;;;5063780;28;20007;-81
2021/10/11 01:42:34;;;;;;;;;;;10.30;99.90;;;;;;5058829;28;19920;-82
2021/10/11 01:45:00;;;;;;;;;;;10.20;99.90;;;;;;5054663;28;19913;-82
2021/10/11 01:47:26;;;;;;;;;;;10.20;99.90;;;;;;5078043;28;19955;-81
2021/10/11 01:49:52;;;;;;;;;;;10.10;99.90;;;;;;5064000;28;19913;-81
2021/10/11 01:52:18;;;;;;;;;;;10.10;99.90;;;;;;5069384;28;19928;-81
2021/10/11 01:54:43;;;;;;;;;;;10.10;99.90;;;;;;5062896;28;19921;-81
2021/10/11 01:57:09;;;;;;;;;;;10.10;99.90;;;;;;5056361;28;20319;-79
2021/10/11 01:59:35;;;;;;;;;;;10.00;99.90;;;;;;5056696;28;19966;-81
2021/10/11 02:02:02;;;;;;;;;;;10.00;99.90;;;;;;5059011;28;19919;-81
2021/10/11 02:04:28;;;;;;;;;;;10.00;99.90;;;;;;5056274;28;19928;-79
2021/10/11 02:06:53;;;;;;;;;;;10.00;99.90;;;;;;5056385;28;20124;-81
2021/10/11 02:09:19;;;;;;;;;;;10.00;99.90;;;;;;5061176;28;20292;-81
2021/10/11 02:11:45;;;;;;;;;;;9.90;99.90;;;;;;5060615;28;19913;-81
2021/10/11 02:14:11;;;;;;;;;;;9.90;99.90;;;;;;5068149;28;19919;-81
2021/10/11 02:16:36;;;;;;;;;;;9.90;99.90;;;;;;5054181;28;19931;-80
2021/10/11 02:19:02;;;;;;;;;;;9.90;99.90;;;;;;5074026;28;20011;-81
2021/10/11 02:21:28;;;;;;;;;;;9.80;99.90;;;;;;5059585;28;20323;-80
2021/10/11 02:23:53;;;;;;;;;;;9.80;99.90;;;;;;5063999;28;19912;-80
2021/10/11 02:26:19;;;;;;;;;;;9.80;99.90;;;;;;5076452;28;19967;-79
2021/10/11 02:28:44;;;;;;;;;;;9.70;99.90;;;;;;5067310;28;19916;-80
2021/10/11 02:31:10;;;;;;;;;;;9.60;99.90;;;;;;5062968;28;19926;-79
2021/10/11 02:33:35;;;;;;;;;;;9.70;99.90;;;;;;5064302;28;19917;-80
2021/10/11 02:36:01;;;;;;;;;;;9.70;99.90;;;;;;5065464;28;19920;-80
2021/10/11 02:38:27;;;;;;;;;;;9.70;99.90;;;;;;5067824;28;19939;-80
2021/10/11 02:40:52;;;;;;;;;;;9.70;99.90;;;;;;5069848;28;19923;-80
2021/10/11 02:43:18;;;;;;;;;;;9.70;99.90;;;;;;5069827;28;20342;-78
2021/10/11 02:45:43;;;;;;;;;;;9.80;99.90;;;;;;5070637;28;19920;-80
2021/10/11 02:48:09;;;;;;;;;;;9.80;99.90;;;;;;5057533;28;19913;-79
2021/10/11 02:50:35;;;;;;;;;;;9.90;99.90;;;;;;5058590;28;20220;-79
2021/10/11 02:53:00;;;;;;;;;;;9.90;99.90;;;;;;5060255;28;20200;-80
2021/10/11 02:55:26;;;;;;;;;;;10.00;99.90;;;;;;5062472;28;19924;-82
2021/10/11 02:57:51;;;;;;;;;;;10.00;99.90;;;;;;5076181;28;20008;-80
2021/10/11 03:00:17;;;;;;;;;;;10.00;99.90;;;;;;5065761;28;19936;-78
2021/10/11 03:02:43;;;;;;;;;;;10.10;99.90;;;;;;5066653;28;19917;-79
2021/10/11 03:05:08;;;;;;;;;;;10.10;99.90;;;;;;5063584;28;20007;-79
2021/10/11 03:07:34;;;;;;;;;;;10.10;99.90;;;;;;5056840;28;19970;-79
2021/10/11 03:09:59;;;;;;;;;;;10.10;99.90;;;;;;5062594;28;19913;-80
2021/10/11 03:12:25;;;;;;;;;;;10.10;99.90;;;;;;5067402;28;19913;-80
2021/10/11 03:14:51;;;;;;;;;;;10.10;99.90;;;;;;5064389;28;20266;-80
2021/10/11 03:17:17;;;;;;;;;;;10.00;99.90;;;;;;5061046;28;19923;-79
2021/10/11 03:19:43;;;;;;;;;;;10.00;99.90;;;;;;5057308;28;19917;-80
2021/10/11 03:22:08;;;;;;;;;;;10.00;99.90;;;;;;5082590;28;19920;-78
2021/10/11 03:24:34;;;;;;;;;;;9.90;99.90;;;;;;5081591;28;19916;-80
2021/10/11 03:26:59;;;;;;;;;;;9.90;99.90;;;;;;5068540;28;19917;-80
2021/10/11 03:29:25;;;;;;;;;;;9.90;99.90;;;;;;5061649;28;20004;-81
2021/10/11 03:31:51;;;;;;;;;;;9.90;99.90;;;;;;5060211;28;19917;-81
2021/10/11 03:34:16;;;;;;;;;;;9.90;99.90;;;;;;5073606;28;20346;-80
2021/10/11 03:36:42;;;;;;;;;;;9.90;99.90;;;;;;5063276;28;19931;-79
2021/10/11 03:39:07;;;;;;;;;;;10.00;99.90;;;;;;5070934;28;19920;-81
2021/10/11 03:41:33;;;;;;;;;;;10.00;99.90;;;;;;5065068;28;19939;-80
2021/10/11 03:43:59;;;;;;;;;;;10.00;99.90;;;;;;5068117;28;19955;-78
2021/10/11 03:46:25;;;;;;;;;;;10.00;99.90;;;;;;5064071;28;19916;-80
2021/10/11 03:48:51;;;;;;;;;;;10.00;99.90;;;;;;5090252;28;19920;-79
2021/10/11 03:51:16;;;;;;;;;;;10.00;99.90;;;;;;5073658;28;19928;-80
2021/10/11 03:53:42;;;;;;;;;;;10.00;99.90;;;;;;5058459;28;20020;-80
2021/10/11 03:56:07;;;;;;;;;;;10.00;99.90;;;;;;5058147;28;19978;-80
2021/10/11 03:58:33;;;;;;;;;;;10.00;99.90;;;;;;5071478;28;19955;-79
2021/10/11 04:00:58;;;;;;;;;;;10.00;99.90;;;;;;5060814;28;19920;-79
2021/10/11 04:03:24;;;;;;;;;;;10.00;99.90;;;;;;5061554;28;19923;-80
2021/10/11 04:05:50;;;;;;;;;;;10.00;99.90;;;;;;5064768;28;19916;-79
2021/10/11 04:08:19;;;;;;;;;;;9.90;99.90;;;;;;5066716;28;19926;-80
2021/10/11 04:11:07;;;;;;;;;;;9.90;99.90;;;;;;5057802;28;19966;-79
2021/10/11 04:13:32;;;;;;;;;;;9.90;99.90;;;;;;5072489;28;19978;-79
2021/10/11 04:15:58;;;;;;;;;;;9.80;99.90;;;;;;5062081;28;19962;-78
2021/10/11 04:18:24;;;;;;;;;;;9.80;99.90;;;;;;5060126;28;19912;-80
2021/10/11 04:20:49;;;;;;;;;;;9.70;99.90;;;;;;5061407;28;20071;-79
2021/10/11 04:23:15;;;;;;;;;;;9.70;99.90;;;;;;5059234;28;19917;-79
2021/10/11 04:25:40;;;;;;;;;;;9.60;99.90;;;;;;5070323;28;19917;-79
2021/10/11 04:28:08;;;;;;;;;;;9.60;99.90;;;;;;5055936;28;19935;-80
2021/10/11 04:30:34;;;;;;;;;;;9.60;99.90;;;;;;5055919;28;19917;-79
2021/10/11 04:33:00;;;;;;;;;;;9.50;99.90;;;;;;5060586;28;19920;-80
2021/10/11 04:35:25;;;;;;;;;;;9.50;99.90;;;;;;5054415;28;19928;-80
2021/10/11 04:37:51;;;;;;;;;;;9.50;99.90;;;;;;5058009;28;20295;-80
2021/10/11 04:40:17;;;;;;;;;;;9.50;99.90;;;;;;5059105;28;19909;-81
2021/10/11 04:42:43;;;;;;;;;;;9.50;99.90;;;;;;5061962;28;20298;-80
2021/10/11 04:45:09;;;;;;;;;;;9.50;99.90;;;;;;5066485;28;20011;-78
2021/10/11 04:47:34;;;;;;;;;;;9.50;99.90;;;;;;5060688;28;20228;-80
2021/10/11 04:50:02;;;;;;;;;;;9.50;99.90;;;;;;5066992;28;20034;-80
2021/10/11 04:52:27;;;;;;;;;;;9.40;99.90;;;;;;5065528;28;20278;-80
2021/10/11 04:54:53;;;;;;;;;;;9.50;99.90;;;;;;5063686;28;19913;-80
2021/10/11 04:57:19;;;;;;;;;;;9.50;99.90;;;;;;5063033;28;20010;-80
2021/10/11 04:59:44;;;;;;;;;;;9.50;99.90;;;;;;5058501;28;19908;-80
2021/10/11 05:02:10;;;;;;;;;;;9.50;99.90;;;;;;5061537;28;19967;-79
2021/10/11 05:04:35;;;;;;;;;;;9.50;99.90;;;;;;5053835;28;19914;-80
2021/10/11 05:07:01;;;;;;;;;;;9.50;99.90;;;;;;5066042;28;19913;-79
2021/10/11 05:09:26;;;;;;;;;;;9.50;99.90;;;;;;5072120;28;19913;-79
2021/10/11 05:11:52;;;;;;;;;;;9.50;99.90;;;;;;5063041;28;19956;-80
2021/10/11 05:14:17;;;;;;;;;;;9.60;99.90;;;;;;5059626;28;20295;-81
2021/10/11 05:16:43;;;;;;;;;;;9.60;99.90;;;;;;5054938;28;20283;-80
2021/10/11 05:19:10;;;;;;;;;;;9.60;99.90;;;;;;5073623;28;20180;-78
2021/10/11 05:21:35;;;;;;;;;;;9.60;99.90;;;;;;5056686;28;19966;-80
2021/10/11 05:24:01;;;;;;;;;;;9.60;99.90;;;;;;5064627;28;19913;-80
2021/10/11 05:26:27;;;;;;;;;;;9.60;99.90;;;;;;5070306;28;19961;-79
2021/10/11 05:28:53;;;;;;;;;;;9.60;99.90;;;;;;5062835;28;19916;-80
2021/10/11 05:31:19;;;;;;;;;;;9.70;99.90;;;;;;5066871;28;19908;-81
2021/10/11 05:33:44;;;;;;;;;;;9.70;99.90;;;;;;5067343;28;20307;-80
2021/10/11 05:36:12;;;;;;;;;;;9.70;99.90;;;;;;5066496;28;19920;-80
2021/10/11 05:38:38;;;;;;;;;;;9.70;99.90;;;;;;5066056;28;20319;-79
2021/10/11 05:41:04;;;;;;;;;;;9.80;99.90;;;;;;5067664;28;19919;-80
2021/10/11 05:43:29;;;;;;;;;;;9.80;99.90;;;;;;5067770;28;19958;-79
2021/10/11 05:45:55;;;;;;;;;;;9.80;99.90;;;;;;5066058;28;19948;-79
2021/10/11 05:48:20;;;;;;;;;;;9.90;99.90;;;;;;5074755;28;19992;-80
2021/10/11 05:50:46;;;;;;;;;;;9.90;99.90;;;;;;5069043;28;19913;-81
2021/10/11 05:53:12;;;;;;;;;;;9.90;99.90;;;;;;5073057;28;19920;-79
2021/10/11 05:55:37;;;;;;;;;;;9.90;99.90;;;;;;5072688;28;19924;-80
2021/10/11 05:58:03;;;;;;;;;;;10.00;99.90;;;;;;5089271;28;20346;-79
2021/10/11 06:00:29;;;;;;;;;;;10.00;99.90;;;;;;5073088;28;20387;-79
2021/10/11 06:02:55;;;;;;;;;;;10.00;99.90;;;;;;5074947;28;19917;-79
2021/10/11 06:05:25;;;;;;;;;;;10.10;99.90;;;;;;5074772;28;19919;-79
2021/10/11 06:07:51;;;;;;;;;;;10.00;99.90;;;;;;5073182;28;19924;-79
2021/10/11 06:10:16;;;;;;;;;;;10.10;99.90;;;;;;5073000;28;20223;-80
2021/10/11 06:12:43;;;;;;;;;;;10.10;99.90;;;;;;5075319;28;19920;-79
2021/10/11 06:15:08;;;;;;;;;;;10.10;99.90;;;;;;5072422;28;19974;-81
2021/10/11 06:17:34;;;;;;;;;;;10.10;99.90;;;;;;5075371;28;19920;-80
2021/10/11 06:19:59;;;;;;;;;;;10.20;99.90;;;;;;5074208;28;19913;-78
2021/10/11 06:22:25;;;;;;;;;;;10.20;99.90;;;;;;5073082;28;19913;-80
2021/10/11 06:24:51;;;;;;;;;;;10.20;99.90;;;;;;5070349;28;19919;-79
2021/10/11 06:27:16;;;;;;;;;;;10.20;99.90;;;;;;5075065;28;20036;-79
2021/10/11 06:29:42;;;;;;;;;;;10.20;99.90;;;;;;5072306;28;19975;-79
2021/10/11 06:32:07;;;;;;;;;;;10.20;99.90;;;;;;5071263;28;19963;-78
2021/10/11 06:34:33;;;;;;;;;;;10.20;99.90;;;;;;5090656;28;19913;-79
2021/10/11 06:36:58;;;;;;;;;;;10.30;99.90;;;;;;5072148;28;19936;-79
2021/10/11 06:39:24;;;;;;;;;;;10.30;99.90;;;;;;5075163;28;19926;-80
2021/10/11 06:41:50;;;;;;;;;;;10.30;99.90;;;;;;5073526;28;19923;-80
2021/10/11 06:44:15;;;;;;;;;;;10.30;99.90;;;;;;5074016;28;20299;-79
2021/10/11 06:46:41;;;;;;;;;;;10.30;99.90;;;;;;5073561;28;19966;-79
2021/10/11 06:49:06;;;;;;;;;;;10.30;99.90;;;;;;5075334;28;20338;-79
2021/10/11 06:51:32;;;;;;;;;;;10.40;99.90;;;;;;5075704;28;20271;-80
2021/10/11 06:53:57;;;;;;;;;;;10.40;99.90;;;;;;5072494;28;20215;-80
2021/10/11 06:56:23;;;;;;;;;;;10.40;99.90;;;;;;5074067;28;20019;-80
2021/10/11 06:58:48;;;;;;;;;;;10.40;99.90;;;;;;5092638;28;19960;-79
2021/10/11 07:01:14;;;;;;;;;;;10.50;99.90;;;;;;5076787;28;19916;-80
2021/10/11 07:03:40;;;;;;;;;;;10.50;99.90;;;;;;5074820;28;19962;-80
2021/10/11 07:06:07;;;;;;;;;;;10.60;99.90;;;;;;5072767;28;19927;-80
2021/10/11 07:08:33;;;;;;;;;;;10.60;99.90;;;;;;5070781;28;19941;-80
2021/10/11 07:10:59;;;;;;;;;;;10.60;99.90;;;;;;5063374;28;19916;-80
2021/10/11 07:13:25;;;;;;;;;;;10.60;99.90;;;;;;5061398;28;19913;-80
2021/10/11 07:15:51;;;;;;;;;;;10.70;99.90;;;;;;5079915;28;19923;-79
2021/10/11 07:18:17;;;;;;;;;;;10.70;99.90;;;;;;5059572;28;19919;-80
2021/10/11 07:20:44;;;;;;;;;;;10.70;99.90;;;;;;5064164;28;19917;-80
2021/10/11 07:23:10;;;;;;;;;;;10.70;99.90;;;;;;5060391;28;20017;-80
2021/10/11 07:25:36;;;;;;;;;;;10.70;99.90;;;;;;5060463;28;19951;-79
2021/10/11 07:28:02;;;;;;;;;;;10.80;99.90;;;;;;5060045;28;19917;-80
2021/10/11 07:30:28;;;;;;;;;;;10.80;99.90;;;;;;5063592;28;19924;-80
2021/10/11 07:32:54;;;;;;;;;;;10.80;99.90;;;;;;5061780;28;19912;-80
2021/10/11 07:35:19;;;;;;;;;;;10.80;99.90;;;;;;5056104;28;19963;-79
2021/10/11 07:37:45;;;;;;;;;;;10.90;99.90;;;;;;5062176;28;20227;-80
2021/10/11 07:40:11;;;;;;;;;;;11.00;99.90;;;;;;5064992;28;20275;-79
2021/10/11 07:42:36;;;;;;;;;;;11.00;99.90;;;;;;5070663;28;19982;-79
2021/10/11 07:45:02;;;;;;;;;;;11.10;99.90;;;;;;5074157;28;19939;-79
2021/10/11 07:47:28;;;;;;;;;;;11.30;99.90;;;;;;5072613;28;19947;-79
2021/10/11 07:49:54;;;;;;;;;;;11.70;99.90;;;;;;5074502;28;19912;-79
2021/10/11 07:52:19;;;;;;;;;;;12.50;99.90;;;;;;5072595;28;19916;-79
2021/10/11 07:54:45;;;;;;;;;;;12.80;99.90;;;;;;5072462;28;19979;-79
2021/10/11 07:57:10;;;;;;;;;;;13.20;99.90;;;;;;5069089;28;19920;-79
2021/10/11 07:59:36;;;;;;;;;;;13.50;99.90;;;;;;5074142;28;19999;-79
2021/10/11 08:02:02;;;;;;;;;;;13.60;99.90;;;;;;5084270;28;20007;-79
2021/10/11 08:04:27;;;;;;;;;;;13.50;99.90;;;;;;5079297;28;19921;-79
2021/10/11 08:06:53;;;;;;;;;;;13.50;99.90;;;;;;5076226;28;19913;-79
2021/10/11 08:09:18;;;;;;;;;;;13.60;99.90;;;;;;5070791;28;20347;-79
2021/10/11 08:11:44;;;;;;;;;;;13.90;99.90;;;;;;5073085;28;19996;-80
2021/10/11 08:14:10;;;;;;;;;;;14.10;99.90;;;;;;5072877;28;19912;-79
2021/10/11 08:16:38;;;;;;;;;;;14.40;99.90;;;;;;5070148;28;20221;-80
2021/10/11 08:19:03;;;;;;;;;;;14.40;99.90;;;;;;5071949;28;19921;-80
2021/10/11 08:21:29;;;;;;;;;;;14.30;99.90;;;;;;5088324;28;19916;-79
2021/10/11 08:23:56;;;;;;;;;;;14.10;99.90;;;;;;5072166;28;20004;-81
2021/10/11 08:26:22;;;;;;;;;;;13.90;99.90;;;;;;5087284;28;19917;-80
2021/10/11 08:28:47;;;;;;;;;;;13.60;99.90;;;;;;5089476;28;19916;-80
2021/10/11 08:31:13;;;;;;;;;;;13.40;99.90;;;;;;5070969;28;19920;-80
2021/10/11 08:33:40;;;;;;;;;;;13.50;99.90;;;;;;5068758;28;19935;-79
2021/10/11 08:36:05;;;;;;;;;;;13.80;99.90;;;;;;5071846;28;19927;-80
2021/10/11 08:38:32;;;;;;;;;;;14.20;99.90;;;;;;5071130;28;19912;-80
2021/10/11 08:40:57;;;;;;;;;;;14.70;99.90;;;;;;5086527;28;19916;-81
2021/10/11 08:43:23;;;;;;;;;;;14.60;99.90;;;;;;5072287;28;19919;-80
2021/10/11 08:45:49;;;;;;;;;;;14.40;99.90;;;;;;5073101;28;19912;-80
2021/10/11 08:48:15;;;;;;;;;;;14.20;99.90;;;;;;5068135;28;20324;-81
2021/10/11 08:50:41;;;;;;;;;;;14.10;99.90;;;;;;5070873;28;19994;-80
2021/10/11 08:53:08;;;;;;;;;;;14.30;99.90;;;;;;5086220;27;19939;-81
2021/10/11 08:55:33;;;;;;;;;;;14.40;99.90;;;;;;5069927;28;19912;-81
2021/10/11 08:58:00;;;;;;;;;;;14.20;99.90;;;;;;5071154;28;19920;-80
2021/10/11 09:00:25;;;;;;;;;;;14.10;99.90;;;;;;5074348;28;19968;-80
2021/10/11 09:02:54;;;;;;;;;;;14.00;99.90;;;;;;5078260;28;19948;-80
2021/10/11 09:05:32;;;;;;;;;;;14.00;99.90;;;;;;5054990;28;19919;-80
2021/10/11 09:07:58;;;;;;;;;;;14.20;99.90;;;;;;5059458;28;19939;-81
2021/10/11 09:10:24;;;;;;;;;;;14.50;99.90;;;;;;5060122;28;19939;-80
2021/10/11 09:12:49;;;;;;;;;;;14.50;99.90;;;;;;5060126;28;19912;-80
2021/10/11 09:15:15;;;;;;;;;;;14.60;99.90;;;;;;5065954;28;20312;-81
2021/10/11 09:17:43;;;;;;;;;;;14.60;99.90;;;;;;5057618;28;20257;-81
2021/10/11 09:20:09;;;;;;;;;;;14.60;99.90;;;;;;5072881;28;20207;-82
2021/10/11 09:22:35;;;;;;;;;;;14.80;99.90;;;;;;5072014;28;20004;-80
2021/10/11 09:25:01;;;;;;;;;;;15.00;99.90;;;;;;5072304;28;19920;-81
2021/10/11 09:27:27;;;;;;;;;;;15.10;99.90;;;;;;5070419;28;19916;-80
2021/10/11 09:29:53;;;;;;;;;;;15.10;99.90;;;;;;5072655;28;19919;-80
2021/10/11 09:32:18;;;;;;;;;;;15.20;99.90;;;;;;5071720;28;20366;-80
2021/10/11 09:34:44;;;;;;;;;;;15.20;99.90;;;;;;5070765;28;19920;-81
2021/10/11 09:37:11;;;;;;;;;;;15.00;99.90;;;;;;5071418;28;20270;-80
2021/10/11 09:39:40;;;;;;;;;;;15.10;99.90;;;;;;5068115;28;20505;-81
2021/10/11 09:42:06;;;;;;;;;;;15.10;99.90;;;;;;5070043;28;19916;-80
2021/10/11 09:44:32;;;;;;;;;;;14.90;99.90;;;;;;5070444;28;19913;-81
2021/10/11 09:47:03;;;;;;;;;;;14.80;99.90;;;;;;5068057;28;19928;-82
2021/10/11 09:49:28;;;;;;;;;;;14.70;99.90;;;;;;5067780;28;19923;-81
2021/10/11 09:51:54;;;;;;;;;;;14.60;99.90;;;;;;5068543;28;20015;-81
2021/10/11 09:54:20;;;;;;;;;;;14.50;99.90;;;;;;5070241;28;19920;-81
2021/10/11 09:56:46;;;;;;;;;;;14.60;99.90;;;;;;5066267;28;19920;-81
2021/10/11 09:59:13;;;;;;;;;;;14.70;99.90;;;;;;5070511;28;20327;-81
2021/10/11 10:01:40;;;;;;;;;;;14.70;99.90;;;;;;5065726;28;19956;-81
2021/10/11 10:04:06;;;;;;;;;;;14.60;99.90;;;;;;5068566;28;19913;-82
2021/10/11 10:06:32;;;;;;;;;;;14.60;99.90;;;;;;5066487;28;19920;-84
2021/10/11 10:09:00;;;;;;;;;;;14.50;99.90;;;;;;5069854;28;19948;-82
2021/10/11 10:11:30;;;;;;;;;;;14.30;99.90;;;;;;5070864;28;19916;-81
2021/10/11 10:13:56;;;;;;;;;;;14.20;99.90;;;;;;5070863;28;19912;-82
2021/10/11 10:16:22;;;;;;;;;;;14.20;99.90;;;;;;5071027;28;19925;-83
2021/10/11 10:18:47;;;;;;;;;;;14.10;99.90;;;;;;5067940;28;20020;-80
2021/10/11 10:21:17;;;;;;;;;;;14.20;99.90;;;;;;5068099;28;19924;-82
2021/10/11 10:23:43;;;;;;;;;;;14.30;99.90;;;;;;5069498;28;19916;-82
2021/10/11 10:26:11;;;;;;;;;;;14.40;99.90;;;;;;5069484;28;19924;-80
2021/10/11 10:28:44;;;;;;;;;;;14.60;99.90;;;;;;5071010;28;20039;-86
2021/10/11 10:31:10;;;;;;;;;;;14.70;99.90;;;;;;5069539;28;19912;-82
2021/10/11 10:33:37;;;;;;;;;;;14.80;99.90;;;;;;5088425;28;19920;-81
2021/10/11 10:36:17;;;;;;;;;;;15.00;99.90;;;;;;5069524;28;19920;-84
2021/10/11 10:38:43;;;;;;;;;;;14.90;99.90;;;;;;5071426;28;20307;-83
2021/10/11 10:41:18;;;;;;;;;;;15.00;99.90;;;;;;5074415;28;19938;-82
2021/10/11 10:43:44;;;;;;;;;;;14.90;99.90;;;;;;5078099;28;20334;-84
2021/10/11 10:46:09;;;;;;;;;;;15.00;99.90;;;;;;5075034;28;20016;-79
2021/10/11 10:48:45;;;;;;;;;;;14.90;99.90;;;;;;5070001;28;19982;-83
2021/10/11 10:51:11;;;;;;;;;;;15.00;99.90;;;;;;5074389;28;19977;-83
2021/10/11 10:53:36;;;;;;;;;;;15.10;99.90;;;;;;5058864;28;20350;-82
2021/10/11 10:56:03;;;;;;;;;;;15.10;99.90;;;;;;5069094;28;20298;-83
2021/10/11 10:58:28;;;;;;;;;;;15.20;99.90;;;;;;5074296;28;19921;-82
2021/10/11 11:00:54;;;;;;;;;;;15.20;99.90;;;;;;5061575;28;19920;-84
2021/10/11 11:03:20;;;;;;;;;;;15.20;99.90;;;;;;5071855;28;19993;-84
2021/10/11 11:05:47;;;;;;;;;;;15.20;99.90;;;;;;5072285;28;20358;-82
2021/10/11 11:08:17;;;;;;;;;;;15.10;99.90;;;;;;5073491;28;19939;-83
2021/10/11 11:10:43;;;;;;;;;;;15.10;99.90;;;;;;5073025;28;20428;-83
2021/10/11 11:13:16;;;;;;;;;;;15.20;99.90;;;;;;5074098;28;19994;-84
2021/10/11 11:15:46;;;;;;;;;;;15.40;99.90;;;;;;5087264;28;19923;-82
2021/10/11 11:18:15;;;;;;;;;;;15.60;99.90;;;;;;5073871;28;20476;-86
2021/10/11 11:20:41;;;;;;;;;;;15.70;99.90;;;;;;5073269;28;19920;-83
2021/10/11 11:23:08;;;;;;;;;;;15.50;99.90;;;;;;5059578;28;19913;-83
2021/10/11 11:25:35;;;;;;;;;;;15.40;99.90;;;;;;5077969;28;19916;-82
2021/10/11 11:28:02;;;;;;;;;;;15.30;99.90;;;;;;5069058;28;19917;-81
2021/10/11 11:30:28;;;;;;;;;;;15.30;99.90;;;;;;5062324;28;20007;-82
2021/10/11 11:33:04;;;;;;;;;;;15.30;99.90;;;;;;5068939;28;20011;-86
2021/10/11 11:35:31;;;;;;;;;;;15.40;99.90;;;;;;5075154;28;19962;-85
2021/10/11 11:37:59;;;;;;;;;;;15.40;99.90;;;;;;5064456;28;19927;-86
2021/10/11 11:40:26;;;;;;;;;;;15.30;99.90;;;;;;5056985;28;19913;-83
2021/10/11 11:42:55;;;;;;;;;;;15.30;99.90;;;;;;5068791;28;19990;-78
2021/10/11 11:45:22;;;;;;;;;;;15.10;99.90;;;;;;5069242;28;19913;-80
2021/10/11 11:47:48;;;;;;;;;;;14.90;99.90;;;;;;5079481;28;20227;-80
2021/10/11 11:50:17;;;;;;;;;;;14.70;99.90;;;;;;5077557;28;19921;-81
2021/10/11 11:52:43;;;;;;;;;;;14.60;99.90;;;;;;5073767;28;19916;-82
2021/10/11 11:55:09;;;;;;;;;;;14.40;99.90;;;;;;5068862;28;19921;-83
2021/10/11 11:57:42;;;;;;;;;;;14.50;99.90;;;;;;5070914;28;19924;-81
2021/10/11 12:00:08;;;;;;;;;;;14.50;99.90;;;;;;5088144;28;20036;-82
2021/10/11 12:02:36;;;;;;;;;;;14.60;99.90;;;;;;5072035;28;19914;-84
2021/10/11 12:05:02;;;;;;;;;;;14.60;99.90;;;;;;5067761;28;19954;-82
2021/10/11 12:07:28;;;;;;;;;;;14.50;99.90;;;;;;5075130;28;19917;-81
2021/10/11 12:09:53;;;;;;;;;;;14.50;99.90;;;;;;5068370;28;19920;-84
2021/10/11 12:12:19;;;;;;;;;;;14.50;99.90;;;;;;5057727;28;20257;-84
2021/10/11 12:14:48;;;;;;;;;;;14.50;99.90;;;;;;5071563;28;19912;-80
2021/10/11 12:17:14;;;;;;;;;;;14.50;99.90;;;;;;5059551;28;19925;-86
2021/10/11 12:19:39;;;;;;;;;;;14.40;99.90;;;;;;5061006;28;19923;-83
2021/10/11 12:22:05;;;;;;;;;;;14.50;99.90;;;;;;5067946;28;19999;-85
2021/10/11 12:24:32;;;;;;;;;;;14.60;99.90;;;;;;5060595;28;19912;-82
2021/10/11 12:26:59;;;;;;;;;;;14.60;99.90;;;;;;5066138;28;20226;-83
2021/10/11 12:29:28;;;;;;;;;;;14.60;99.90;;;;;;5074629;28;20295;-82
2021/10/11 12:31:57;;;;;;;;;;;14.70;99.90;;;;;;5083380;28;19919;-81
2021/10/11 12:34:30;;;;;;;;;;;14.80;99.90;;;;;;5068810;28;20036;-84
2021/10/11 12:36:57;;;;;;;;;;;14.90;99.90;;;;;;5072125;28;19955;-82
2021/10/11 12:39:33;;;;;;;;;;;15.20;99.90;;;;;;5067519;28;20011;-82
2021/10/11 12:41:59;;;;;;;;;;;15.20;99.90;;;;;;5069344;28;19920;-82
2021/10/11 12:44:32;;;;;;;;;;;15.20;99.90;;;;;;5070241;28;19935;-82
2021/10/11 12:46:58;;;;;;;;;;;15.30;99.90;;;;;;5058168;28;20554;-87
2021/10/11 12:49:32;;;;;;;;;;;15.30;99.90;;;;;;5059894;28;20003;-81
2021/10/11 12:51:58;;;;;;;;;;;15.30;99.90;;;;;;5064570;28;19958;-82
2021/10/11 12:54:27;;;;;;;;;;;15.20;99.90;;;;;;5073824;28;19960;-83
2021/10/11 12:56:53;;;;;;;;;;;15.00;99.90;;;;;;5068475;28;20011;-84
2021/10/11 12:59:19;;;;;;;;;;;14.80;99.90;;;;;;5064148;28;19971;-84
2021/10/11 13:01:45;;;;;;;;;;;14.70;99.90;;;;;;5059570;28;19919;-83
2021/10/11 13:04:10;;;;;;;;;;;14.50;99.90;;;;;;5071733;28;20215;-85
2021/10/11 13:06:36;;;;;;;;;;;14.60;99.90;;;;;;5078404;28;20211;-83
2021/10/11 13:09:03;;;;;;;;;;;14.70;99.90;;;;;;5063124;28;19948;-85
2021/10/11 13:11:28;;;;;;;;;;;14.70;99.90;;;;;;5061676;28;19928;-87
2021/10/11 13:13:55;;;;;;;;;;;14.60;99.90;;;;;;5067583;28;19912;-83
2021/10/11 13:16:20;;;;;;;;;;;14.40;99.90;;;;;;5058516;28;19955;-83
2021/10/11 13:18:46;;;;;;;;;;;14.40;99.90;;;;;;5063480;28;20214;-85
2021/10/11 13:21:11;;;;;;;;;;;14.60;99.90;;;;;;5066321;28;19919;-87
2021/10/11 13:23:40;;;;;;;;;;;14.70;99.90;;;;;;5071954;28;20323;-81
2021/10/11 13:26:06;;;;;;;;;;;14.90;99.90;;;;;;5055510;28;19945;-82
2021/10/11 13:28:32;;;;;;;;;;;14.90;99.90;;;;;;5062192;28;19999;-87
2021/10/11 14:27:57;;;;;;;;;;;13.80;99.90;;;;;;5073753;28;19971;-83
2021/10/11 15:56:02;;;;;;;;;;;13.50;99.90;;;;;;5071711;28;19942;-86
2021/10/11 15:59:47;;;;;;;;;;;13.50;99.90;;;;;;5073166;28;20260;-83
2021/10/11 16:04:42;;;;;;;;;;;13.50;99.90;;;;;;5073574;28;20311;-83
2021/10/11 16:07:08;;;;;;;;;;;13.50;99.90;;;;;;5071078;28;19916;-80
2021/10/11 16:09:35;;;;;;;;;;;13.40;99.90;;;;;;5070408;28;19920;-82
2021/10/11 16:12:01;;;;;;;;;;;13.40;99.90;;;;;;5067380;28;19919;-82
2021/10/11 16:14:26;;;;;;;;;;;13.30;99.90;;;;;;5069547;28;20555;-81
2021/10/11 16:16:52;;;;;;;;;;;13.20;99.90;;;;;;5071027;28;20231;-86
2021/10/11 16:19:18;;;;;;;;;;;13.20;99.90;;;;;;5072735;28;19920;-81
2021/10/11 16:21:44;;;;;;;;;;;13.00;99.90;;;;;;5069232;28;19916;-81
2021/10/11 16:24:09;;;;;;;;;;;13.00;99.90;;;;;;5066898;28;19970;-81
2021/10/11 16:26:35;;;;;;;;;;;12.90;99.90;;;;;;5074236;28;19921;-84
2021/10/11 16:29:00;;;;;;;;;;;12.80;99.90;;;;;;5068598;28;19946;-82
2021/10/11 16:31:26;;;;;;;;;;;12.80;99.90;;;;;;5065464;28;20322;-82
2021/10/11 16:33:51;;;;;;;;;;;12.70;99.90;;;;;;5060831;28;19916;-83
2021/10/11 16:36:17;;;;;;;;;;;12.70;99.90;;;;;;5055387;28;19921;-82
2021/10/11 16:38:44;;;;;;;;;;;12.80;99.90;;;;;;5063064;28;20326;-85